Terminal Aerodrome Forecast
Issued by NWS Northern Indiana

Home | Current Version | Previous Version | Text Only | Print | Product List | Glossary On
Versions: 1 2 3 4 5 6 7 8 9 10 11 12 13
000
FTUS43 KIWX 172300 RRA
TAFFWA
TAF
KFWA 172345Z 1800/1824 27009KT P6SM OVC025
      TEMPO 1800/1802 5SM -SN=

USA.gov is the U.S. government's official web portal to all federal, state and local government web resources and services.